Salt Lake City, Utah
Traffic Map
Current Weather Conditions
Salt Lake City, Utah
Clear
Clear
62°
Feels Like: 62°
Wind Chill: 62° Ceiling: Unl
Heat Index: 62° Visibility: 10mi
Dew Point: 49° Wind: 0mph
Humidity: 62% Direction: ° ()
Pressure: 30.26in Gusts: 0mph
Raw Report DataKSLC 270254Z 00000KT 10SM CLR 17/09 A3026 RMK AO2 SLP219 T01670094 55004
Traffic Incident Summary
Active as of:
Severity:
Category:
InformationThere was an issue retrieving the traffic information for this location. Please try a different location or try again shortly.
Advertisements
Track Severe Weather on mobile